Time;durP1;ratioP1;P1;durP2;ratioP2;P2;SDS_P1;SDS_P2;PMS_P1;PMS_P2;Temp;Humidity;BMP_temperature;BMP_pressure;BME280_temperature;BME280_humidity;BME280_pressure;Samples;Min_cycle;Max_cycle;Signal;HPM_P1;HPM_P2
2023/11/06 00:00:40;;;;;;;1.10;0.70;;;9.20;99.90;;;;;;6240626;22;20024;-76
2023/11/06 00:03:07;;;;;;;1.88;0.75;;;9.20;99.90;;;;;;6214060;22;20027;-88
2023/11/06 00:05:37;;;;;;;1.95;0.90;;;9.20;99.90;;;;;;6240888;22;20023;-77
2023/11/06 00:08:05;;;;;;;1.50;0.82;;;9.20;99.90;;;;;;6216144;22;20027;-77
2023/11/06 00:10:32;;;;;;;1.95;0.80;;;9.10;99.90;;;;;;6240693;22;20015;-81
2023/11/06 00:12:59;;;;;;;2.15;1.05;;;9.10;99.90;;;;;;6267016;22;20409;-77
2023/11/06 00:15:27;;;;;;;0.82;0.57;;;9.10;99.90;;;;;;6268794;22;20054;-76
2023/11/06 00:17:55;;;;;;;2.00;0.85;;;9.10;99.90;;;;;;6215284;22;20027;-77
2023/11/06 00:20:22;;;;;;;1.90;1.10;;;9.00;99.90;;;;;;6267622;22;20486;-76
2023/11/06 00:22:49;;;;;;;1.33;0.70;;;9.00;99.90;;;;;;6215057;22;20019;-76
2023/11/06 00:25:16;;;;;;;0.75;0.70;;;9.00;99.90;;;;;;6240406;22;20457;-76
2023/11/06 00:27:43;;;;;;;1.10;0.80;;;9.00;99.90;;;;;;6268116;22;20267;-77
2023/11/06 00:30:11;;;;;;;0.80;0.70;;;9.00;99.90;;;;;;6190551;22;20027;-76
2023/11/06 00:32:38;;;;;;;1.45;0.95;;;9.00;99.90;;;;;;6268180;22;20020;-77
2023/11/06 00:35:05;;;;;;;1.23;0.85;;;9.00;99.90;;;;;;6266884;22;20512;-77
2023/11/06 00:37:33;;;;;;;2.72;0.90;;;9.00;99.90;;;;;;6266865;22;20054;-87
2023/11/06 00:39:59;;;;;;;1.10;0.80;;;9.00;99.90;;;;;;6240781;22;20025;-78
2023/11/06 00:42:28;;;;;;;1.30;0.90;;;9.00;99.90;;;;;;6267509;22;20115;-87
2023/11/06 00:44:55;;;;;;;0.60;0.52;;;9.00;99.90;;;;;;6267060;22;20043;-76
2023/11/06 00:47:22;;;;;;;1.48;0.63;;;9.00;99.90;;;;;;6240391;22;20023;-77
2023/11/06 00:49:49;;;;;;;2.08;0.80;;;9.00;99.90;;;;;;6240567;22;20121;-76
2023/11/06 00:52:16;;;;;;;1.52;0.70;;;8.90;99.90;;;;;;6267702;22;20102;-88
2023/11/06 00:54:43;;;;;;;1.52;0.80;;;8.90;99.90;;;;;;6240301;22;20516;-77
2023/11/06 00:57:10;;;;;;;1.42;0.70;;;8.90;99.90;;;;;;6240596;22;20028;-77
2023/11/06 00:59:38;;;;;;;1.25;0.70;;;8.90;99.90;;;;;;6266636;22;20524;-77
2023/11/06 01:02:05;;;;;;;0.47;0.40;;;8.90;99.90;;;;;;6240176;22;20023;-76
2023/11/06 01:04:32;;;;;;;1.15;0.82;;;8.90;99.90;;;;;;6266214;22;20412;-76
2023/11/06 01:06:59;;;;;;;0.90;0.70;;;8.90;99.90;;;;;;6214776;22;20461;-76
2023/11/06 01:09:26;;;;;;;1.13;0.75;;;8.90;99.90;;;;;;6240224;22;20341;-76
2023/11/06 01:11:54;;;;;;;1.50;0.90;;;8.90;99.90;;;;;;6240332;22;20020;-76
2023/11/06 01:14:21;;;;;;;1.20;1.08;;;8.90;99.90;;;;;;6266337;22;20086;-76
2023/11/06 01:16:48;;;;;;;1.95;0.73;;;8.90;99.90;;;;;;6244467;22;20027;-77
2023/11/06 01:19:15;;;;;;;1.10;0.75;;;8.90;99.90;;;;;;6242860;22;20030;-76
2023/11/06 01:21:42;;;;;;;1.65;0.90;;;8.90;99.90;;;;;;6242291;22;20028;-83
2023/11/06 01:24:11;;;;;;;1.00;0.75;;;8.90;99.90;;;;;;6267018;22;20031;-77
2023/11/06 01:26:42;;;;;;;1.05;0.60;;;8.90;99.90;;;;;;6241246;22;20066;-76
2023/11/06 01:29:11;;;;;;;1.00;0.60;;;8.90;99.90;;;;;;6240743;22;20349;-76
2023/11/06 01:31:38;;;;;;;0.90;0.60;;;8.90;99.90;;;;;;6239844;22;20464;-77
2023/11/06 01:34:05;;;;;;;1.13;0.77;;;8.90;99.90;;;;;;6240009;22;20023;-76
2023/11/06 01:36:33;;;;;;;2.17;0.82;;;8.90;99.90;;;;;;6266599;22;20030;-83
2023/11/06 01:39:00;;;;;;;1.83;0.60;;;8.80;99.90;;;;;;6215054;22;20420;-76
2023/11/06 01:41:27;;;;;;;1.08;0.90;;;8.80;99.90;;;;;;6240321;22;20022;-76
2023/11/06 01:43:54;;;;;;;0.75;0.55;;;8.80;99.90;;;;;;6215668;22;20027;-76
2023/11/06 01:46:21;;;;;;;1.73;0.70;;;8.80;99.90;;;;;;6238733;22;20445;-76
2023/11/06 01:48:48;;;;;;;0.95;0.60;;;8.80;99.90;;;;;;6266358;22;20035;-76
2023/11/06 01:51:16;;;;;;;1.27;0.60;;;8.80;99.90;;;;;;6214987;22;20396;-76
2023/11/06 01:53:42;;;;;;;1.58;0.63;;;8.80;99.90;;;;;;6240310;22;20093;-77
2023/11/06 01:56:09;;;;;;;1.48;0.60;;;8.80;99.90;;;;;;6239994;22;20077;-78
2023/11/06 01:58:36;;;;;;;1.08;0.50;;;8.80;99.90;;;;;;6239890;22;20019;-87
2023/11/06 02:01:05;;;;;;;2.38;0.75;;;8.70;99.90;;;;;;6237631;22;20188;-77
2023/11/06 02:03:33;;;;;;;0.80;0.60;;;8.70;99.90;;;;;;6214893;22;20405;-77
2023/11/06 02:06:00;;;;;;;2.08;0.65;;;8.70;99.90;;;;;;6239954;22;20039;-77
2023/11/06 02:08:27;;;;;;;0.80;0.60;;;8.70;99.90;;;;;;6214900;22;20027;-76
2023/11/06 02:10:53;;;;;;;1.27;0.75;;;8.70;99.90;;;;;;6266983;22;20027;-76
2023/11/06 02:13:22;;;;;;;0.75;0.43;;;8.70;99.90;;;;;;6189386;22;20106;-76
2023/11/06 02:15:51;;;;;;;1.02;0.32;;;8.70;99.90;;;;;;6266103;22;20393;-76
2023/11/06 02:18:18;;;;;;;1.33;0.65;;;8.70;99.90;;;;;;6266451;22;20030;-76
2023/11/06 02:20:45;;;;;;;0.82;0.40;;;8.60;99.90;;;;;;6266966;22;20142;-84
2023/11/06 02:23:12;;;;;;;0.55;0.43;;;8.60;99.90;;;;;;6240114;22;20095;-76
2023/11/06 02:25:39;;;;;;;1.83;0.68;;;8.60;99.90;;;;;;6239767;22;20404;-80
2023/11/06 02:28:07;;;;;;;2.35;0.90;;;8.60;99.90;;;;;;6266209;22;20019;-76
2023/11/06 03:11:42;;;;;;;0.68;0.40;;;8.60;1.00;;;;;;6214165;22;20028;-84
2023/11/06 03:14:09;;;;;;;0.85;0.35;;;8.60;1.00;;;;;;6218577;22;20020;-84
2023/11/06 03:16:38;;;;;;;0.75;0.40;;;8.50;1.00;;;;;;6218104;22;20027;-84
2023/11/06 03:19:05;;;;;;;0.47;0.30;;;8.60;1.00;;;;;;6244489;22;20385;-85
2023/11/06 03:21:33;;;;;;;0.65;0.50;;;8.50;1.00;;;;;;6243631;22;20340;-85
2023/11/06 03:24:00;;;;;;;0.80;0.32;;;8.50;1.00;;;;;;6269672;22;20307;-85
2023/11/06 03:26:27;;;;;;;0.30;0.30;;;8.50;1.00;;;;;;6217858;22;20288;-85
2023/11/06 03:28:54;;;;;;;0.57;0.40;;;8.40;1.00;;;;;;6219117;22;20030;-85
2023/11/06 03:31:21;;;;;;;0.82;0.50;;;8.40;93.10;;;;;;6217595;22;20055;-85
2023/11/06 03:33:50;;;;;;;0.75;0.50;;;8.40;99.90;;;;;;6218699;22;20020;-86
2023/11/06 03:36:17;;;;;;;1.33;0.50;;;8.50;99.90;;;;;;6218109;22;20066;-85
2023/11/06 03:38:45;;;;;;;1.30;0.40;;;8.50;99.90;;;;;;6218523;22;20028;-84
2023/11/06 03:41:12;;;;;;;0.50;0.50;;;8.50;99.90;;;;;;6242439;22;20015;-83
2023/11/06 03:43:39;;;;;;;1.52;0.55;;;8.60;99.90;;;;;;6243511;22;20034;-84
2023/11/06 03:46:06;;;;;;;0.75;0.38;;;8.60;99.90;;;;;;6242810;22;20024;-83
2023/11/06 03:48:34;;;;;;;1.52;0.40;;;8.60;99.90;;;;;;6208639;23;20035;-84
2023/11/06 03:51:01;;;;;;;1.33;0.60;;;8.60;99.90;;;;;;6242604;22;20421;-83
2023/11/06 03:53:28;;;;;;;0.68;0.45;;;8.60;99.90;;;;;;6217945;22;20421;-84
2023/11/06 03:55:56;;;;;;;0.60;0.43;;;8.70;99.90;;;;;;6214860;22;20035;-87
2023/11/06 03:58:24;;;;;;;0.70;0.50;;;8.70;99.90;;;;;;6216048;22;20093;-81
2023/11/06 04:00:52;;;;;;;1.30;0.38;;;8.70;99.90;;;;;;6240307;22;20023;-82
2023/11/06 04:03:20;;;;;;;1.50;0.43;;;8.70;99.90;;;;;;6215851;22;20042;-80
2023/11/06 04:05:51;;;;;;;1.27;0.55;;;8.80;99.90;;;;;;6215168;22;20016;-81
2023/11/06 04:08:17;;;;;;;1.33;0.85;;;8.80;99.90;;;;;;6216177;22;20024;-84
2023/11/06 04:10:50;;;;;;;1.25;0.50;;;8.80;99.90;;;;;;6216010;22;20031;-82
2023/11/06 04:13:17;;;;;;;1.98;0.50;;;8.80;99.90;;;;;;6258224;22;20503;-80
2023/11/06 04:39:55;;;;;;;1.40;0.60;;;8.80;1.00;;;;;;6194076;22;20025;-92
2023/11/06 04:42:24;;;;;;;0.73;0.40;;;8.80;1.00;;;;;;6215153;23;20051;-91
2023/11/06 04:44:55;;;;;;;0.77;0.40;;;8.70;1.00;;;;;;6215778;23;20043;-92
2023/11/06 04:47:31;;;;;;;0.52;0.30;;;8.80;1.00;;;;;;6214517;23;20046;-91
2023/11/06 04:50:02;;;;;;;0.30;0.30;;;8.80;1.00;;;;;;6218887;22;20016;-91
2023/11/06 04:52:29;;;;;;;0.75;0.30;;;8.80;1.00;;;;;;6190499;23;20469;-91
2023/11/06 04:55:00;;;;;;;1.35;0.45;;;8.80;1.00;;;;;;6221466;22;20019;-91
2023/11/06 04:57:31;;;;;;;0.70;0.40;;;8.80;1.00;;;;;;6221319;22;20022;-91
2023/11/06 04:59:58;;;;;;;0.65;0.30;;;8.80;1.00;;;;;;6221095;22;20130;-91
2023/11/06 05:02:34;;;;;;;1.25;0.38;;;8.80;1.00;;;;;;6223014;22;20012;-92
2023/11/06 05:05:16;;;;;;;0.28;0.20;;;8.90;99.90;;;;;;6221060;22;20325;-92
2023/11/06 05:08:13;;;;;;;0.60;0.45;;;8.90;99.90;;;;;;6229785;22;20034;-92
2023/11/06 05:10:42;;;;;;;1.55;0.40;;;8.90;99.90;;;;;;6222173;22;20024;-91
2023/11/06 05:13:23;;;;;;;;;;;;;;;;;;;;;
2023/11/06 05:15:56;;;;;;;;;;;8.80;99.90;;;;;;6243400;22;20362;-91
2023/11/06 05:19:03;;;;;;;0.52;0.35;;;8.80;99.90;;;;;;6236378;22;20309;-92
2023/11/06 05:22:01;;;;;;;1.30;0.50;;;8.80;99.90;;;;;;6232711;22;20018;-93
2023/11/06 05:24:51;;;;;;;0.55;0.40;;;8.80;99.90;;;;;;6238070;22;20019;-93
2023/11/06 05:28:12;;;;;;;0.43;0.40;;;8.80;99.90;;;;;;6225461;22;20020;-92
2023/11/06 05:31:17;;;;;;;1.10;0.47;;;8.80;99.90;;;;;;6254737;22;20095;-92
2023/11/06 05:35:15;;;;;;;;;;;;;;;;;;;;;
2023/11/06 05:37:51;;;;;;;0.40;0.30;;;8.70;99.90;;;;;;6221306;23;20032;-91
2023/11/06 05:59:42;;;;;;;0.20;0.20;;;8.30;92.90;;;;;;6265502;22;20023;-87
2023/11/06 06:02:11;;;;;;;0.15;0.15;;;8.30;99.60;;;;;;6220570;22;20050;-87
2023/11/06 06:04:40;;;;;;;0.30;0.30;;;8.30;93.70;;;;;;6218847;22;20024;-88
2023/11/06 06:10:58;;;;;;;0.20;0.20;;;8.30;99.90;;;;;;6240808;22;20022;-88
2023/11/06 06:13:26;;;;;;;0.25;0.20;;;8.20;99.90;;;;;;6217141;22;20666;-87
2023/11/06 06:15:54;;;;;;;0.20;0.20;;;8.10;99.90;;;;;;6217569;22;20016;-87
2023/11/06 06:18:23;;;;;;;0.40;0.28;;;8.10;99.90;;;;;;6194350;22;20419;-87
2023/11/06 06:20:51;;;;;;;0.30;0.30;;;8.10;99.90;;;;;;6217522;22;20019;-87
2023/11/06 06:23:19;;;;;;;0.47;0.30;;;8.10;99.90;;;;;;6219037;22;20022;-86
2023/11/06 06:25:48;;;;;;;0.20;0.20;;;8.10;99.90;;;;;;6218816;22;20019;-87
2023/11/06 06:28:16;;;;;;;0.28;0.22;;;8.00;99.90;;;;;;6218347;22;20034;-89
2023/11/06 06:30:45;;;;;;;0.32;0.20;;;8.10;99.90;;;;;;6217830;22;20362;-87
2023/11/06 06:33:13;;;;;;;0.35;0.32;;;8.00;99.90;;;;;;6219844;22;20024;-89
2023/11/06 06:35:41;;;;;;;0.20;0.20;;;8.00;1.00;;;;;;6222276;22;20024;-89
2023/11/06 06:38:11;;;;;;;0.10;0.10;;;7.90;1.00;;;;;;6218313;22;20019;-88
2023/11/06 06:40:42;;;;;;;0.63;0.30;;;7.90;1.00;;;;;;6218565;22;20082;-90
2023/11/06 06:43:10;;;;;;;0.15;0.15;;;7.80;1.00;;;;;;6217125;22;20072;-87
2023/11/06 06:45:38;;;;;;;0.15;0.15;;;7.70;1.00;;;;;;6217509;22;20015;-86
2023/11/06 06:48:08;;;;;;;0.38;0.25;;;7.60;95.80;;;;;;6217292;22;20020;-87
2023/11/06 06:50:36;;;;;;;0.35;0.32;;;7.60;99.90;;;;;;6191848;23;20319;-86
2023/11/06 06:53:04;;;;;;;0.15;0.15;;;7.50;99.90;;;;;;6188397;23;20020;-87
2023/11/06 06:55:32;;;;;;;0.22;0.22;;;7.50;11.20;;;;;;6188134;23;20102;-86
2023/11/06 06:58:00;;;;;;;0.38;0.20;;;7.50;58.20;;;;;;6191438;23;20024;-87
2023/11/06 07:00:29;;;;;;;0.65;0.30;;;7.50;99.90;;;;;;6190459;23;20426;-86
2023/11/06 07:02:57;;;;;;;0.40;0.40;;;7.50;99.90;;;;;;6186084;23;20016;-86
2023/11/06 07:05:26;;;;;;;0.57;0.30;;;7.40;1.00;;;;;;6211214;23;20051;-86
2023/11/06 07:07:54;;;;;;;0.20;0.20;;;7.40;1.00;;;;;;6190923;22;20068;-88
2023/11/06 07:10:22;;;;;;;0.20;0.20;;;7.50;99.90;;;;;;6194184;22;20070;-87
2023/11/06 07:12:51;;;;;;;0.60;0.30;;;7.40;99.90;;;;;;6194637;22;20015;-87
2023/11/06 07:15:18;;;;;;;0.25;0.22;;;7.40;99.90;;;;;;6197005;22;20050;-87
2023/11/06 07:17:48;;;;;;;0.63;0.30;;;7.40;99.90;;;;;;6196717;22;20034;-94
2023/11/06 07:20:17;;;;;;;0.55;0.38;;;7.40;99.90;;;;;;6196850;22;20020;-88
2023/11/06 07:22:45;;;;;;;0.30;0.25;;;7.40;99.90;;;;;;6199512;22;20015;-89
2023/11/06 07:25:12;;;;;;;0.28;0.22;;;7.40;99.90;;;;;;6198266;22;20016;-89
2023/11/06 07:27:42;;;;;;;0.20;0.20;;;7.40;99.90;;;;;;6199217;22;20019;-89
2023/11/06 07:30:11;;;;;;;0.35;0.30;;;7.40;99.90;;;;;;6196529;22;20071;-89
2023/11/06 07:32:41;;;;;;;0.22;0.22;;;7.50;1.00;;;;;;6195602;22;20015;-90
2023/11/06 07:35:13;;;;;;;0.20;0.20;;;7.50;17.20;;;;;;6195259;22;20016;-89
2023/11/06 07:37:43;;;;;;;0.25;0.20;;;7.50;96.60;;;;;;6221271;22;20099;-90
2023/11/06 07:40:14;;;;;;;0.20;0.20;;;7.60;99.90;;;;;;6199142;22;20012;-92
2023/11/06 07:42:42;;;;;;;0.28;0.22;;;7.70;50.00;;;;;;6196222;22;20028;-89
2023/11/06 07:45:11;;;;;;;0.77;0.30;;;7.80;1.00;;;;;;6195959;22;20015;-90
2023/11/06 07:47:39;;;;;;;0.70;0.30;;;7.90;99.90;;;;;;6198749;22;20020;-89
2023/11/06 07:50:08;;;;;;;0.28;0.20;;;8.00;75.90;;;;;;6224249;22;20042;-88
2023/11/06 07:52:36;;;;;;;0.30;0.30;;;8.00;1.00;;;;;;6196679;22;20012;-89
2023/11/06 07:55:05;;;;;;;0.20;0.20;;;8.10;99.90;;;;;;6195885;22;20015;-88
2023/11/06 07:57:33;;;;;;;0.28;0.28;;;8.10;99.90;;;;;;6197322;22;20016;-89
2023/11/06 08:00:03;;;;;;;0.20;0.20;;;8.20;1.00;;;;;;6199484;22;20034;-91
2023/11/06 08:02:34;;;;;;;0.30;0.30;;;8.30;99.90;;;;;;6197374;22;20031;-89
2023/11/06 08:05:04;;;;;;;1.00;0.40;;;8.30;17.80;;;;;;6199038;22;20020;-88
2023/11/06 08:07:32;;;;;;;1.58;0.80;;;8.40;1.00;;;;;;6246133;22;20046;-88
2023/11/06 08:10:00;;;;;;;0.73;0.30;;;8.50;99.90;;;;;;6200703;22;20026;-88
2023/11/06 08:12:29;;;;;;;0.65;0.35;;;8.60;99.90;;;;;;6197955;22;20054;-88
2023/11/06 08:14:58;;;;;;;0.68;0.38;;;8.60;98.50;;;;;;6198925;22;20027;-88
2023/11/06 08:17:25;;;;;;;0.47;0.40;;;8.70;16.80;;;;;;6197847;22;20058;-88
2023/11/06 08:19:54;;;;;;;0.43;0.30;;;8.70;1.00;;;;;;6197727;22;20019;-90
2023/11/06 08:22:23;;;;;;;0.38;0.32;;;8.80;1.00;;;;;;6198072;22;20437;-88
2023/11/06 08:24:51;;;;;;;0.95;0.40;;;8.80;1.00;;;;;;6198671;22;20449;-88
2023/11/06 08:27:20;;;;;;;0.70;0.40;;;8.80;1.00;;;;;;6201690;22;20046;-90
2023/11/06 08:29:47;;;;;;;0.50;0.35;;;8.90;1.00;;;;;;6199764;22;20022;-91
2023/11/06 08:32:18;;;;;;;0.55;0.38;;;8.90;1.00;;;;;;6198449;22;20022;-88
2023/11/06 08:34:45;;;;;;;0.68;0.40;;;8.90;1.00;;;;;;6198803;22;20026;-88
2023/11/06 08:37:13;;;;;;;0.40;0.40;;;9.00;99.90;;;;;;6197669;22;20083;-88
2023/11/06 08:39:45;;;;;;;1.13;0.57;;;9.00;99.90;;;;;;6198119;22;20063;-89
2023/11/06 08:42:13;;;;;;;0.55;0.43;;;9.10;99.90;;;;;;6198137;22;20022;-88
2023/11/06 08:44:45;;;;;;;0.70;0.40;;;9.10;99.90;;;;;;6198111;22;20026;-89
2023/11/06 08:47:15;;;;;;;1.02;0.57;;;9.10;99.90;;;;;;6200309;22;20058;-89
2023/11/06 08:49:42;;;;;;;0.45;0.40;;;9.20;99.90;;;;;;6199609;22;20042;-89
2023/11/06 08:52:10;;;;;;;0.50;0.40;;;9.30;99.90;;;;;;6199071;22;20511;-89
2023/11/06 08:54:41;;;;;;;1.85;1.13;;;9.30;99.90;;;;;;6197654;22;20046;-87
2023/11/06 08:57:08;;;;;;;1.02;0.50;;;9.40;99.90;;;;;;6198606;22;20023;-91
2023/11/06 08:59:36;;;;;;;0.63;0.50;;;9.40;99.90;;;;;;6199364;22;20032;-92
2023/11/06 09:02:06;;;;;;;1.45;0.50;;;9.40;99.90;;;;;;6197424;22;20097;-89
2023/11/06 09:04:35;;;;;;;0.65;0.40;;;9.50;99.90;;;;;;6198025;22;20030;-89
2023/11/06 09:07:05;;;;;;;1.30;0.40;;;9.60;99.90;;;;;;6199669;22;20443;-91
2023/11/06 09:09:40;;;;;;;1.67;0.60;;;9.60;99.90;;;;;;6201772;22;20069;-91
2023/11/06 09:12:08;;;;;;;0.70;0.30;;;9.70;99.90;;;;;;6202240;22;20019;-91
2023/11/06 09:14:36;;;;;;;1.05;0.50;;;9.70;99.90;;;;;;6198421;22;20026;-87
2023/11/06 09:17:04;;;;;;;0.73;0.73;;;9.80;99.90;;;;;;6198030;22;20023;-87
2023/11/06 09:19:32;;;;;;;2.42;0.80;;;9.80;99.90;;;;;;6196273;22;20298;-87
2023/11/06 09:22:03;;;;;;;1.65;0.50;;;9.90;99.90;;;;;;6202469;22;20020;-88
2023/11/06 09:24:30;;;;;;;0.88;0.47;;;9.90;99.90;;;;;;6196949;22;20020;-89
2023/11/06 09:26:59;;;;;;;1.13;0.40;;;10.00;99.90;;;;;;6194314;22;20049;-89
2023/11/06 09:29:30;;;;;;;0.52;0.47;;;10.00;99.90;;;;;;6192423;22;20015;-89
2023/11/06 09:31:59;;;;;;;1.02;0.43;;;10.10;99.90;;;;;;6193315;22;20015;-92
2023/11/06 09:34:29;;;;;;;0.82;0.60;;;10.10;99.90;;;;;;6193981;22;20023;-94
2023/11/06 09:36:59;;;;;;;1.40;0.45;;;10.20;99.90;;;;;;6197332;22;20019;-90
2023/11/06 09:39:28;;;;;;;0.68;0.52;;;10.30;99.90;;;;;;6198186;22;20046;-90
2023/11/06 09:41:56;;;;;;;2.30;0.60;;;10.40;99.90;;;;;;6195072;22;20022;-88
2023/11/06 09:44:28;;;;;;;1.55;0.40;;;10.40;99.90;;;;;;6198518;22;20073;-89
2023/11/06 09:46:56;;;;;;;1.48;0.60;;;10.50;99.90;;;;;;6198354;22;20012;-89
2023/11/06 09:49:26;;;;;;;0.75;0.55;;;10.60;94.40;;;;;;6196920;22;20015;-89
2023/11/06 09:51:58;;;;;;;2.53;0.80;;;10.60;91.40;;;;;;6196603;22;20023;-88
2023/11/06 09:54:27;;;;;;;0.93;0.50;;;10.70;78.40;;;;;;6196657;22;20016;-91
2023/11/06 09:56:54;;;;;;;1.67;0.50;;;10.70;76.40;;;;;;6199210;22;20042;-91
2023/11/06 09:59:22;;;;;;;0.70;0.40;;;10.80;73.70;;;;;;6193321;23;20024;-91
2023/11/06 10:01:53;;;;;;;2.17;0.60;;;10.80;69.10;;;;;;6168632;23;20114;-90
2023/11/06 10:04:21;;;;;;;2.60;0.82;;;10.90;76.50;;;;;;6171081;23;20020;-90
2023/11/06 10:06:50;;;;;;;2.92;0.63;;;10.90;65.10;;;;;;6169333;23;20068;-90
2023/11/06 10:09:20;;;;;;;1.38;0.55;;;11.00;59.40;;;;;;6194832;23;20647;-91
2023/11/06 10:11:47;;;;;;;0.88;0.38;;;11.00;58.50;;;;;;6194634;23;20099;-92
2023/11/06 10:14:15;;;;;;;1.38;0.50;;;11.10;59.20;;;;;;6170411;23;20075;-90
2023/11/06 10:16:42;;;;;;;2.53;0.73;;;11.10;52.50;;;;;;6169783;23;20016;-91
2023/11/06 10:19:12;;;;;;;1.60;0.70;;;11.20;46.40;;;;;;6169780;23;20026;-92
2023/11/06 10:21:43;;;;;;;3.13;0.63;;;11.20;47.60;;;;;;6170911;23;20028;-91
2023/11/06 10:24:13;;;;;;;1.42;0.65;;;11.30;44.40;;;;;;6169304;23;20043;-92
2023/11/06 10:26:42;;;;;;;1.67;0.77;;;11.30;37.70;;;;;;6168591;23;20074;-92
2023/11/06 10:29:13;;;;;;;1.85;0.95;;;11.30;30.70;;;;;;6167863;23;20457;-91
2023/11/06 10:31:44;;;;;;;1.98;0.95;;;11.40;34.80;;;;;;6192600;23;20054;-90
2023/11/06 10:34:37;;;;;;;2.00;1.00;;;11.40;32.40;;;;;;6168220;23;20024;-92
2023/11/06 10:37:10;;;;;;;2.22;0.70;;;11.50;30.40;;;;;;6209053;23;20012;-86
2023/11/06 10:39:40;;;;;;;2.22;0.77;;;11.50;25.20;;;;;;6190845;23;20020;-85
2023/11/06 10:42:11;;;;;;;1.83;0.93;;;11.60;28.60;;;;;;6166386;23;20018;-90
2023/11/06 10:44:44;;;;;;;1.98;0.73;;;11.70;25.90;;;;;;6169113;23;20079;-90
2023/11/06 10:47:12;;;;;;;0.85;0.55;;;11.70;23.30;;;;;;6168835;23;20019;-91
2023/11/06 10:49:44;;;;;;;2.47;0.80;;;11.70;24.40;;;;;;6168256;23;20042;-91
2023/11/06 10:52:11;;;;;;;1.25;0.80;;;11.80;23.00;;;;;;6193253;23;20071;-92
2023/11/06 10:54:38;;;;;;;1.58;0.90;;;11.80;20.40;;;;;;6168300;23;20065;-92
2023/11/06 10:57:08;;;;;;;1.60;1.02;;;11.80;22.00;;;;;;6167958;23;20019;-91
2023/11/06 10:59:37;;;;;;;4.03;0.90;;;11.80;22.40;;;;;;6194268;22;20024;-92
2023/11/06 11:02:07;;;;;;;1.67;0.77;;;11.90;21.30;;;;;;6224033;22;20467;-91
2023/11/06 11:04:36;;;;;;;1.60;0.70;;;11.90;21.90;;;;;;6197399;22;20064;-90
2023/11/06 11:07:06;;;;;;;1.80;0.80;;;12.00;21.10;;;;;;6196444;22;20016;-90
2023/11/06 11:09:35;;;;;;;2.83;1.05;;;12.00;17.70;;;;;;6195592;22;20030;-90
2023/11/06 11:12:05;;;;;;;2.30;0.70;;;12.00;14.50;;;;;;6196687;22;20023;-90
2023/11/06 11:14:41;;;;;;;3.75;1.15;;;12.10;16.80;;;;;;6196380;22;20024;-89
2023/11/06 11:17:09;;;;;;;1.83;0.70;;;12.10;11.50;;;;;;6195586;22;20020;-89
2023/11/06 11:19:37;;;;;;;3.30;1.10;;;12.20;11.50;;;;;;6196113;22;20687;-86
2023/11/06 11:22:10;;;;;;;2.53;0.95;;;12.30;9.90;;;;;;6198871;22;20023;-87
2023/11/06 11:24:50;;;;;;;3.00;1.45;;;12.30;8.10;;;;;;6194669;22;20020;-88
2023/11/06 11:27:21;;;;;;;3.50;0.90;;;12.40;4.00;;;;;;6243757;22;20530;-91
2023/11/06 11:29:55;;;;;;;3.50;0.93;;;12.60;3.40;;;;;;6195926;22;20035;-90
2023/11/06 11:32:49;;;;;;;1.48;1.00;;;12.70;1.20;;;;;;6243073;22;20099;-91
2023/11/06 11:35:40;;;;;;;4.47;1.00;;;12.80;1.00;;;;;;6247083;22;20020;-91
2023/11/06 11:38:12;;;;;;;3.35;1.00;;;12.90;1.00;;;;;;6250004;22;20430;-91
2023/11/06 11:40:42;;;;;;;4.00;1.27;;;13.00;1.00;;;;;;6200168;22;20020;-89
2023/11/06 11:43:25;;;;;;;3.38;1.48;;;13.10;1.00;;;;;;6249606;22;20026;-88
2023/11/06 11:45:55;;;;;;;;;;;13.20;1.00;;;;;;6245820;22;20050;-87
2023/11/06 11:48:49;;;;;;;1.92;1.38;;;13.20;1.00;;;;;;6220288;22;19986;-88
2023/11/06 11:52:06;;;;;;;2.38;1.20;;;13.20;1.00;;;;;;6230512;22;20020;-87
2023/11/06 11:54:37;;;;;;;1.60;1.10;;;13.30;1.00;;;;;;6224135;22;20047;-88
2023/11/06 11:57:05;;;;;;;1.85;0.90;;;13.30;1.00;;;;;;6198421;22;20019;-88
2023/11/06 11:59:39;;;;;;;3.45;1.45;;;13.50;1.00;;;;;;6199055;22;20035;-89
2023/11/06 12:02:31;;;;;;;1.90;0.95;;;13.60;1.00;;;;;;6249335;22;20024;-89
2023/11/06 12:05:00;;;;;;;2.45;1.10;;;13.70;1.00;;;;;;6227472;22;20019;-87
2023/11/06 12:07:31;;;;;;;1.65;1.00;;;13.80;1.00;;;;;;6205024;22;20019;-88
2023/11/06 12:10:01;;;;;;;1.38;0.73;;;14.00;1.00;;;;;;6230747;22;20073;-88
2023/11/06 12:12:29;;;;;;;1.90;0.70;;;14.10;1.00;;;;;;6205314;22;20023;-90
2023/11/06 12:14:57;;;;;;;1.05;0.70;;;14.30;1.00;;;;;;6203234;22;20023;-88
2023/11/06 12:17:27;;;;;;;2.10;1.08;;;14.40;1.00;;;;;;6223905;22;20094;-88
2023/11/06 12:19:56;;;;;;;1.23;0.70;;;14.50;1.00;;;;;;6198670;22;20074;-88
2023/11/06 12:22:24;;;;;;;3.03;0.82;;;14.60;1.00;;;;;;6198815;22;20022;-90
2023/11/06 12:24:52;;;;;;;2.28;0.88;;;14.60;1.00;;;;;;6196101;22;20019;-91
2023/11/06 12:27:31;;;;;;;1.55;0.50;;;14.40;1.00;;;;;;6196866;22;20015;-89
2023/11/06 12:30:08;;;;;;;2.03;0.90;;;14.40;1.00;;;;;;6198254;22;20026;-90
2023/11/06 12:32:36;;;;;;;1.92;0.80;;;14.70;1.00;;;;;;6200606;22;20338;-90
2023/11/06 12:35:14;;;;;;;1.20;0.82;;;14.80;1.00;;;;;;6199580;22;20042;-89
2023/11/06 12:37:58;;;;;;;3.53;1.23;;;15.00;1.00;;;;;;6202937;22;20495;-92
2023/11/06 12:40:27;;;;;;;2.08;1.00;;;15.00;1.00;;;;;;6202887;22;20102;-89
2023/11/06 12:43:00;;;;;;;1.55;0.80;;;15.10;1.00;;;;;;6198641;22;20020;-91
2023/11/06 12:45:38;;;;;;;0.95;0.57;;;15.30;1.00;;;;;;6199719;22;20501;-91
2023/11/06 12:48:26;;;;;;;1.25;0.70;;;15.60;1.00;;;;;;6198591;22;20016;-91
2023/11/06 12:51:10;;;;;;;2.60;0.70;;;15.80;1.00;;;;;;6198814;22;20020;-90
2023/11/06 12:53:40;;;;;;;1.33;0.65;;;16.00;1.00;;;;;;6221757;22;20475;-89
2023/11/06 12:56:07;;;;;;;2.00;0.80;;;15.90;1.00;;;;;;6240373;22;20020;-89
2023/11/06 12:58:36;;;;;;;0.90;0.50;;;16.00;1.00;;;;;;6189540;22;20026;-90
2023/11/06 13:01:05;;;;;;;1.17;0.57;;;16.10;1.00;;;;;;6192043;22;20031;-92
2023/11/06 13:06:17;;;;;;;2.83;0.90;;;16.20;1.00;;;;;;6261015;22;20546;-83
2023/11/06 13:08:45;;;;;;;0.88;0.60;;;16.10;1.00;;;;;;6267868;22;20408;-85
2023/11/06 13:11:13;;;;;;;0.93;0.60;;;16.20;1.00;;;;;;6242169;22;20019;-84
2023/11/06 13:13:55;;;;;;;0.82;0.32;;;16.40;1.00;;;;;;6227603;22;20030;-84
2023/11/06 13:16:25;;;;;;;1.02;0.60;;;16.50;1.00;;;;;;6266691;22;20027;-83
2023/11/06 13:18:55;;;;;;;1.15;0.60;;;16.60;1.00;;;;;;6219221;22;20019;-84
2023/11/06 13:21:25;;;;;;;0.88;0.50;;;16.80;1.00;;;;;;6216567;22;20094;-80
2023/11/06 13:23:54;;;;;;;1.13;0.50;;;16.90;1.00;;;;;;6242650;22;20023;-82
2023/11/06 13:26:23;;;;;;;1.33;0.73;;;17.20;1.00;;;;;;6266962;22;20610;-83
2023/11/06 13:28:51;;;;;;;2.10;0.90;;;17.20;1.00;;;;;;6242302;22;20023;-84
2023/11/06 13:31:21;;;;;;;1.73;0.77;;;17.20;1.00;;;;;;6215325;22;20102;-79
2023/11/06 13:33:49;;;;;;;2.67;0.90;;;17.30;1.00;;;;;;6215734;22;20069;-80
2023/11/06 13:36:17;;;;;;;1.63;0.88;;;17.20;1.00;;;;;;6215285;22;20019;-79
2023/11/06 13:38:46;;;;;;;1.10;0.70;;;16.90;1.00;;;;;;6213194;22;20511;-80
2023/11/06 13:41:20;;;;;;;2.70;1.00;;;16.90;1.00;;;;;;6214671;22;20023;-79
2023/11/06 13:43:49;;;;;;;1.13;0.75;;;17.00;1.00;;;;;;6244032;22;20102;-79
2023/11/06 13:46:17;;;;;;;1.30;0.57;;;16.90;1.00;;;;;;6265032;22;20126;-79
2023/11/06 13:48:48;;;;;;;2.55;0.93;;;16.80;1.00;;;;;;6214146;22;20356;-80
2023/11/06 13:51:25;;;;;;;1.52;0.70;;;16.80;1.00;;;;;;6218150;22;20099;-80
2023/11/06 13:53:58;;;;;;;1.33;0.70;;;17.00;1.00;;;;;;6244648;22;20076;-81
2023/11/06 13:56:32;;;;;;;4.95;3.28;;;17.30;1.00;;;;;;6216165;22;20027;-78
2023/11/06 13:59:08;;;;;;;7.32;5.65;;;17.30;1.00;;;;;;6246255;22;20019;-79
2023/11/06 14:01:46;;;;;;;4.95;4.00;;;17.30;1.00;;;;;;6240671;22;20027;-79
2023/11/06 14:04:15;;;;;;;5.28;4.30;;;17.30;1.00;;;;;;6211959;22;20012;-81
2023/11/06 14:06:43;;;;;;;4.55;3.22;;;17.20;1.00;;;;;;6210317;22;20028;-80
2023/11/06 14:11:56;;;;;;;18.25;13.77;;;16.50;1.00;;;;;;6239842;22;20681;-84
2023/11/06 14:14:24;;;;;;;19.15;13.75;;;16.20;1.00;;;;;;6210165;22;20034;-83
2023/11/06 14:16:55;;;;;;;20.27;15.80;;;16.00;1.00;;;;;;6211185;22;20381;-83
2023/11/06 14:19:26;;;;;;;48.53;36.55;;;15.70;1.00;;;;;;6237090;22;20031;-78
2023/11/06 14:21:54;;;;;;;38.88;30.38;;;15.40;1.00;;;;;;6210976;22;20030;-78
2023/11/06 14:24:21;;;;;;;30.48;22.45;;;15.00;1.00;;;;;;6261287;22;20100;-78
2023/11/06 14:26:49;;;;;;;20.00;14.75;;;14.80;1.00;;;;;;6205861;22;20389;-79
2023/11/06 14:29:18;;;;;;;34.75;25.08;;;14.60;1.00;;;;;;6209500;22;20016;-77
2023/11/06 14:31:49;;;;;;;29.35;20.98;;;14.40;1.00;;;;;;6208199;22;20042;-82
2023/11/06 14:34:17;;;;;;;28.92;21.55;;;14.30;1.00;;;;;;6236578;22;20437;-82
2023/11/06 14:36:44;;;;;;;22.90;17.60;;;14.30;1.00;;;;;;6209592;22;20028;-83
2023/11/06 14:39:15;;;;;;;17.40;12.93;;;14.50;1.00;;;;;;6236174;22;20657;-84
2023/11/06 14:41:42;;;;;;;15.05;11.52;;;14.70;1.00;;;;;;6210781;22;20023;-82
2023/11/06 14:44:13;;;;;;;11.82;9.15;;;14.80;1.00;;;;;;6210920;22;20465;-83
2023/11/06 14:46:40;;;;;;;8.10;6.57;;;15.20;1.00;;;;;;6211364;22;20028;-83
2023/11/06 14:49:08;;;;;;;7.00;5.25;;;15.40;1.00;;;;;;6210068;22;20019;-82